createdAt,value
2023-04-08T00:00:26.397Z,96210.69
2023-04-08T00:02:53.980Z,96207.06
2023-04-08T00:05:21.555Z,96214.56
2023-04-08T00:07:49.005Z,96214.56
2023-04-08T00:10:18.084Z,96212.88
2023-04-08T00:12:45.752Z,96215.06
2023-04-08T00:15:13.336Z,96210.06
2023-04-08T00:17:41.535Z,96209.81
2023-04-08T00:20:09.781Z,96214.81
2023-04-08T00:22:37.483Z,96222.47
2023-04-08T00:25:06.765Z,96213.19
2023-04-08T00:27:35.875Z,96222.34
2023-04-08T00:30:03.783Z,96218.97
2023-04-08T00:32:31.364Z,96227.19
2023-04-08T00:34:58.889Z,96217.19
2023-04-08T00:37:26.355Z,96218.91
2023-04-08T00:39:54.171Z,96222.28
2023-04-08T00:42:22.043Z,96222.81
2023-04-08T00:44:50.905Z,96229.88
2023-04-08T00:47:18.439Z,96228.34
2023-04-08T00:49:45.981Z,96222.00
2023-04-08T00:52:13.478Z,96233.50
2023-04-08T00:54:42.909Z,96228.38
2023-04-08T00:57:10.552Z,96223.94
2023-04-08T00:59:38.204Z,96227.31
2023-04-08T01:02:15.474Z,96222.03
2023-04-08T01:04:53.821Z,96237.16
2023-04-08T01:07:25.976Z,96227.31
2023-04-08T01:09:56.384Z,96229.28
2023-04-08T01:12:28.244Z,96231.19
2023-04-08T01:15:01.311Z,96238.97
2023-04-08T01:17:31.815Z,96224.56
2023-04-08T01:20:01.605Z,96232.69
2023-04-08T01:22:38.037Z,96232.84
2023-04-08T01:25:09.628Z,96225.59
2023-04-08T01:27:39.448Z,96228.31
2023-04-08T01:30:09.337Z,96236.34
2023-04-08T01:32:38.021Z,96235.34
2023-04-08T01:35:07.130Z,96223.34
2023-04-08T01:37:35.259Z,96231.94
2023-04-08T01:40:03.536Z,96229.00
2023-04-08T01:42:32.174Z,96227.78
2023-04-08T01:45:02.243Z,96226.38
2023-04-08T01:47:30.934Z,96224.44
2023-04-08T01:50:00.887Z,96225.84
2023-04-08T01:52:31.263Z,96224.72
2023-04-08T01:54:58.831Z,96226.72
2023-04-08T01:57:29.429Z,96233.34
2023-04-08T02:00:01.569Z,96225.97
2023-04-08T02:02:32.571Z,96229.50
2023-04-08T02:05:00.238Z,96232.44
2023-04-08T02:07:27.693Z,96228.13
2023-04-08T02:09:55.177Z,96227.94
2023-04-08T02:12:22.886Z,96230.31
2023-04-08T02:14:50.469Z,96225.97
2023-04-08T02:17:22.256Z,96227.72
2023-04-08T02:20:00.989Z,96228.75
2023-04-08T02:22:36.249Z,96228.75
2023-04-08T02:25:05.789Z,96234.03
2023-04-08T02:27:36.005Z,96232.38
2023-04-08T02:30:05.653Z,96235.41
2023-04-08T02:32:34.558Z,96229.66
2023-04-08T02:35:04.981Z,96238.31
2023-04-08T02:37:32.867Z,96233.03
2023-04-08T02:40:00.748Z,96234.97
2023-04-08T02:42:28.270Z,96230.78
2023-04-08T02:44:55.902Z,96237.19
2023-04-08T02:47:23.400Z,96236.81
2023-04-08T02:49:53.203Z,96239.19
2023-04-08T02:52:22.136Z,96238.00
2023-04-08T02:54:49.671Z,96231.66
2023-04-08T02:57:17.939Z,96234.81
2023-04-08T02:59:45.454Z,96231.69
2023-04-08T03:02:13.021Z,96226.47
2023-04-08T03:04:40.564Z,96235.41
2023-04-08T03:07:08.798Z,96230.25
2023-04-08T03:09:37.809Z,96235.09
2023-04-08T03:12:05.810Z,96229.25
2023-04-08T03:14:33.351Z,96224.66
2023-04-08T03:17:00.949Z,96234.22
2023-04-08T03:19:28.431Z,96242.16
2023-04-08T03:21:55.913Z,96234.66
2023-04-08T03:24:23.418Z,96236.59
2023-04-08T03:26:52.245Z,96242.41
2023-04-08T03:29:19.710Z,96245.78
2023-04-08T03:31:47.312Z,96243.00
2023-04-08T03:34:14.839Z,96246.75
2023-04-08T03:36:42.319Z,96242.91
2023-04-08T03:39:10.292Z,96246.75
2023-04-08T03:41:37.777Z,96255.19
2023-04-08T03:44:06.705Z,96252.91
2023-04-08T03:46:34.187Z,96246.03
2023-04-08T03:49:01.659Z,96244.41
2023-04-08T03:51:29.484Z,96245.19
2023-04-08T03:53:56.928Z,96250.47
2023-04-08T03:56:25.118Z,96249.38
2023-04-08T03:58:52.731Z,96246.75
2023-04-08T04:01:21.692Z,96248.56
2023-04-08T04:03:49.279Z,96245.59
2023-04-08T04:06:16.822Z,96250.25
2023-04-08T04:08:44.368Z,96251.13
2023-04-08T04:11:11.832Z,96256.44
2023-04-08T04:13:39.361Z,96253.41
2023-04-08T04:16:07.136Z,96255.19
2023-04-08T04:18:36.026Z,96255.72
2023-04-08T04:21:06.494Z,96257.72
2023-04-08T04:23:34.022Z,96261.94
2023-04-08T04:26:01.524Z,96264.47
2023-04-08T04:28:29.047Z,96262.16
2023-04-08T04:30:56.696Z,96266.97
2023-04-08T04:33:24.495Z,96262.88
2023-04-08T04:35:53.492Z,96267.34
2023-04-08T04:38:21.136Z,96269.22
2023-04-08T04:40:48.692Z,96267.50
2023-04-08T04:43:16.170Z,96267.84
2023-04-08T04:45:45.003Z,96268.94
2023-04-08T04:48:12.511Z,96270.13
2023-04-08T04:50:39.958Z,96270.16
2023-04-08T04:53:08.762Z,96270.88
2023-04-08T04:55:38.728Z,96269.25
2023-04-08T04:58:06.792Z,96277.72
2023-04-08T05:00:34.256Z,96278.66
2023-04-08T05:03:01.813Z,96282.44
2023-04-08T05:05:29.346Z,96284.91
2023-04-08T05:07:56.896Z,96287.22
2023-04-08T05:10:25.998Z,96292.53
2023-04-08T05:12:53.501Z,96291.50
2023-04-08T05:15:21.381Z,96295.09
2023-04-08T05:17:48.930Z,96290.88
2023-04-08T05:20:17.535Z,96291.78
2023-04-08T05:22:45.367Z,96281.19
2023-04-08T05:25:12.993Z,96295.25
2023-04-08T05:27:41.850Z,96296.16
2023-04-08T05:30:10.521Z,96302.63
2023-04-08T05:32:37.997Z,96307.88
2023-04-08T05:35:06.173Z,96310.69
2023-04-08T05:37:33.682Z,96314.22
2023-04-08T05:40:01.168Z,96317.09
2023-04-08T05:42:28.621Z,96318.59
2023-04-08T05:44:57.418Z,96327.91
2023-04-08T05:47:24.959Z,96338.16
2023-04-08T05:49:52.526Z,96334.81
2023-04-08T05:52:20.174Z,96349.09
2023-04-08T05:54:47.631Z,96348.97
2023-04-08T05:57:16.654Z,96352.66
2023-04-08T05:59:44.100Z,96361.34
2023-04-08T06:02:12.972Z,96361.78
2023-04-08T06:04:40.652Z,96365.84
2023-04-08T06:07:08.464Z,96371.81
2023-04-08T06:09:37.382Z,96379.94
2023-04-08T06:12:05.477Z,96371.09
2023-04-08T06:14:33.331Z,96382.28
2023-04-08T06:17:00.924Z,96390.63
2023-04-08T06:19:29.876Z,96382.50
2023-04-08T06:21:58.960Z,96391.47
2023-04-08T06:24:27.307Z,96396.16
2023-04-08T06:26:55.070Z,96389.81
2023-04-08T06:29:23.055Z,96390.84
2023-04-08T06:31:54.625Z,96398.25
2023-04-08T06:34:22.184Z,96402.94
2023-04-08T06:36:51.290Z,96406.66
2023-04-08T06:39:19.428Z,96417.63
2023-04-08T06:41:46.980Z,96408.34
2023-04-08T06:44:14.425Z,96411.00
2023-04-08T06:46:41.903Z,96400.72
2023-04-08T06:49:09.481Z,96409.06
2023-04-08T06:51:37.032Z,96418.69
2023-04-08T06:54:05.907Z,96421.81
2023-04-08T06:56:33.371Z,96417.50
2023-04-08T06:59:01.250Z,96432.75
2023-04-08T07:01:28.794Z,96435.69
2023-04-08T07:03:56.780Z,96433.50
2023-04-08T07:06:24.459Z,96434.78
2023-04-08T07:08:52.223Z,96437.41
2023-04-08T07:11:22.113Z,96437.25
2023-04-08T07:13:49.575Z,96432.66
2023-04-08T07:16:17.067Z,96433.94
2023-04-08T07:18:44.558Z,96442.28
2023-04-08T07:21:12.658Z,96439.66
2023-04-08T07:23:40.294Z,96446.41
2023-04-08T07:26:07.795Z,96453.75
2023-04-08T07:28:36.586Z,96451.38
2023-04-08T07:31:15.916Z,96446.56
2023-04-08T07:33:43.775Z,96454.72
2023-04-08T07:36:12.402Z,96456.66
2023-04-08T07:38:40.104Z,96457.69
2023-04-08T07:41:07.561Z,96459.28
2023-04-08T07:43:37.341Z,96457.94
2023-04-08T07:46:05.789Z,96461.34
2023-04-08T07:48:34.387Z,96459.13
2023-04-08T07:51:07.948Z,96462.38
2023-04-08T07:53:38.154Z,96462.63
2023-04-08T07:56:12.345Z,96461.22
2023-04-08T07:58:41.553Z,96460.75
2023-04-08T08:01:16.461Z,96459.69
2023-04-08T08:03:44.140Z,96461.50
2023-04-08T08:06:12.431Z,96460.91
2023-04-08T08:08:39.894Z,96470.91
2023-04-08T08:11:07.429Z,96472.38
2023-04-08T08:13:34.966Z,96469.38
2023-04-08T08:16:03.901Z,96474.97
2023-04-08T08:18:31.573Z,96466.84
2023-04-08T08:20:59.059Z,96476.16
2023-04-08T08:23:27.108Z,96475.38
2023-04-08T08:26:00.490Z,96476.78
2023-04-08T08:28:28.158Z,96477.63
2023-04-08T08:30:55.793Z,96475.84
2023-04-08T08:33:25.279Z,96483.59
2023-04-08T08:35:53.099Z,96484.19
2023-04-08T08:38:20.826Z,96486.31
2023-04-08T08:40:48.344Z,96493.50
2023-04-08T08:43:15.788Z,96490.53
2023-04-08T08:45:43.722Z,96487.81
2023-04-08T08:48:11.231Z,96482.75
2023-04-08T08:50:40.263Z,96483.09
2023-04-08T08:53:07.721Z,96480.34
2023-04-08T08:56:00.190Z,96475.69
2023-04-08T08:58:23.300Z,96486.19
2023-04-08T09:00:50.764Z,96478.53
2023-04-08T09:03:20.581Z,96490.75
2023-04-08T09:05:51.448Z,96486.03
2023-04-08T09:08:30.622Z,96490.00
2023-04-08T09:11:12.307Z,96492.72
2023-04-08T09:13:40.260Z,96501.03
2023-04-08T09:16:10.124Z,96497.41
2023-04-08T09:18:38.354Z,96507.84
2023-04-08T09:21:08.165Z,96508.81
2023-04-08T09:23:40.487Z,96506.72
2023-04-08T09:26:12.242Z,96509.78
2023-04-08T09:28:41.196Z,96515.00
2023-04-08T09:31:22.165Z,96513.50
2023-04-08T09:33:50.268Z,96509.41
2023-04-08T09:36:19.793Z,96513.00
2023-04-08T09:38:47.803Z,96516.47
2023-04-08T09:41:18.348Z,96506.66
2023-04-08T09:43:50.475Z,96524.63
2023-04-08T09:46:22.286Z,96519.09
2023-04-08T09:48:59.347Z,96518.09
2023-04-08T09:51:33.281Z,96521.78
2023-04-08T09:54:03.551Z,96526.31
2023-04-08T09:56:41.860Z,96526.75
2023-04-08T09:59:13.173Z,96520.84
2023-04-08T10:01:46.382Z,96512.16
2023-04-08T10:04:18.090Z,96516.13
2023-04-08T10:06:53.756Z,96505.56
2023-04-08T10:09:22.708Z,96520.13
2023-04-08T10:11:51.274Z,96524.00
2023-04-08T10:14:18.834Z,96517.38
2023-04-08T10:16:46.368Z,96532.19
2023-04-08T10:19:40.395Z,96522.06
2023-04-08T10:22:41.266Z,96514.66
2023-04-08T10:25:30.713Z,96515.34
2023-04-08T10:27:58.559Z,96513.88
2023-04-08T10:30:42.340Z,96504.56
2023-04-08T10:33:15.003Z,96512.53
2023-04-08T10:35:46.337Z,96512.06
2023-04-08T10:38:14.676Z,96522.41
2023-04-08T10:40:44.635Z,96516.19
2023-04-08T10:43:13.747Z,96524.31
2023-04-08T10:45:42.040Z,96524.84
2023-04-08T10:48:14.177Z,96528.03
2023-04-08T10:50:42.219Z,96532.00
2023-04-08T10:53:09.712Z,96537.56
2023-04-08T10:55:37.268Z,96530.53
2023-04-08T10:58:11.184Z,96539.34
2023-04-08T11:00:39.960Z,96533.56
2023-04-08T11:03:08.909Z,96539.59
2023-04-08T11:05:38.082Z,96534.66
2023-04-08T11:08:06.454Z,96527.72
2023-04-08T11:10:38.408Z,96527.00
2023-04-08T11:13:09.991Z,96535.25
2023-04-08T11:15:38.244Z,96532.09
2023-04-08T11:18:06.783Z,96538.44
2023-04-08T11:20:36.194Z,96541.22
2023-04-08T11:23:04.419Z,96538.97
2023-04-08T11:25:32.222Z,96537.56
2023-04-08T11:28:00.241Z,96540.06
2023-04-08T11:30:30.810Z,96538.53
2023-04-08T11:32:58.813Z,96537.72
2023-04-08T11:35:30.470Z,96534.78
2023-04-08T11:37:58.549Z,96525.72
2023-04-08T11:40:26.547Z,96534.84
2023-04-08T11:42:54.437Z,96532.25
2023-04-08T11:45:23.036Z,96529.16
2023-04-08T11:47:51.943Z,96524.03
2023-04-08T11:50:26.741Z,96527.47
2023-04-08T11:52:55.329Z,96529.38
2023-04-08T11:55:24.928Z,96528.53
2023-04-08T11:57:52.930Z,96531.66
2023-04-08T12:00:21.033Z,96528.25
2023-04-08T12:02:48.927Z,96527.91
2023-04-08T12:05:18.476Z,96531.56
2023-04-08T12:07:45.944Z,96527.13
2023-04-08T12:10:13.947Z,96529.56
2023-04-08T12:12:41.939Z,96532.63
2023-04-08T12:15:10.746Z,96529.88
2023-04-08T12:17:39.223Z,96531.19
2023-04-08T12:20:07.790Z,96525.63
2023-04-08T12:22:36.703Z,96527.28
2023-04-08T12:25:04.538Z,96531.47
2023-04-08T12:27:33.342Z,96529.53
2023-04-08T12:30:00.972Z,96534.78
2023-04-08T12:32:28.866Z,96539.81
2023-04-08T12:34:56.901Z,96538.03
2023-04-08T12:37:24.391Z,96548.31
2023-04-08T12:39:53.208Z,96544.84
2023-04-08T12:42:20.799Z,96547.78
2023-04-08T12:44:48.326Z,96552.22
2023-04-08T12:47:15.873Z,96546.63
2023-04-08T12:49:49.504Z,96543.09
2023-04-08T12:52:17.684Z,96538.91
2023-04-08T12:54:45.446Z,96539.13
2023-04-08T12:57:14.217Z,96537.31
2023-04-08T12:59:41.640Z,96551.22
2023-04-08T13:02:09.128Z,96547.66
2023-04-08T13:04:36.672Z,96563.63
2023-04-08T13:07:04.893Z,96558.19
2023-04-08T13:09:32.340Z,96558.19
2023-04-08T13:11:59.799Z,96546.81
2023-04-08T13:14:28.659Z,96557.41
2023-04-08T13:16:56.170Z,96562.88
2023-04-08T13:19:23.759Z,96558.25
2023-04-08T13:21:51.212Z,96560.03
2023-04-08T13:24:18.660Z,96553.44
2023-04-08T13:26:46.140Z,96550.38
2023-04-08T13:29:13.582Z,96552.09
2023-04-08T13:31:42.490Z,96550.59
2023-04-08T13:34:09.984Z,96546.06
2023-04-08T13:36:37.417Z,96540.34
2023-04-08T13:39:04.973Z,96547.81
2023-04-08T13:41:32.924Z,96543.97
2023-04-08T13:44:00.731Z,96542.63
2023-04-08T13:46:28.227Z,96538.00
2023-04-08T13:48:57.050Z,96542.50
2023-04-08T13:51:37.239Z,96532.72
2023-04-08T13:54:04.863Z,96538.78
2023-04-08T13:56:32.302Z,96530.91
2023-04-08T13:58:59.985Z,96533.97
2023-04-08T14:01:27.953Z,96534.13
2023-04-08T14:03:56.916Z,96529.28
2023-04-08T14:06:24.465Z,96533.72
2023-04-08T14:08:52.114Z,96533.44
2023-04-08T14:11:19.702Z,96535.09
2023-04-08T14:13:47.132Z,96553.91
2023-04-08T14:16:16.617Z,96569.28
2023-04-08T14:18:44.057Z,96586.09
2023-04-08T14:21:14.223Z,96585.03
2023-04-08T14:23:41.868Z,96584.97
2023-04-08T14:26:09.298Z,96576.75
2023-04-08T14:28:36.789Z,96577.56
2023-04-08T14:31:04.853Z,96581.81
2023-04-08T14:33:32.428Z,96591.81
2023-04-08T14:36:00.206Z,96581.94
2023-04-08T14:38:29.105Z,96576.41
2023-04-08T14:40:56.534Z,96574.75
2023-04-08T14:43:24.130Z,96574.59
2023-04-08T14:45:52.064Z,96582.63
2023-04-08T14:48:20.151Z,96591.28
2023-04-08T14:50:47.615Z,96576.94
2023-04-08T14:53:15.487Z,96570.66
2023-04-08T14:55:44.281Z,96562.91
2023-04-08T14:58:11.743Z,96559.44
2023-04-08T15:00:39.226Z,96559.03
2023-04-08T15:03:06.813Z,96568.16
2023-04-08T15:05:36.545Z,96566.97
2023-04-08T15:08:04.322Z,96559.41
2023-04-08T15:10:31.982Z,96565.75
2023-04-08T15:13:01.252Z,96568.75
2023-04-08T15:15:28.818Z,96575.72
2023-04-08T15:17:56.464Z,96580.81
2023-04-08T15:20:24.022Z,96581.41
2023-04-08T15:22:51.832Z,96584.88
2023-04-08T15:25:19.496Z,96582.81
2023-04-08T15:27:47.112Z,96591.66
2023-04-08T15:30:17.043Z,96595.19
2023-04-08T15:32:44.538Z,96590.75
2023-04-08T15:35:12.118Z,96593.66
2023-04-08T15:37:39.562Z,96598.34
2023-04-08T15:40:08.602Z,96590.56
2023-04-08T15:42:36.086Z,96593.22
2023-04-08T15:45:04.512Z,96588.75
2023-04-08T15:47:34.360Z,96592.78
2023-04-08T15:50:01.897Z,96584.50
2023-04-08T15:52:29.400Z,96590.53
2023-04-08T15:54:56.926Z,96596.88
2023-04-08T15:57:26.621Z,96593.03
2023-04-08T15:59:54.342Z,96598.34
2023-04-08T16:02:21.942Z,96593.22
2023-04-08T16:04:50.981Z,96601.69
2023-04-08T16:07:18.434Z,96602.69
2023-04-08T16:09:45.953Z,96614.94
2023-04-08T16:12:14.685Z,96618.84
2023-04-08T16:14:42.138Z,96618.59
2023-04-08T16:17:09.878Z,96621.09
2023-04-08T16:19:37.292Z,96624.44
2023-04-08T16:22:06.379Z,96630.72
2023-04-08T16:24:36.376Z,96628.81
2023-04-08T16:27:04.194Z,96638.28
2023-04-08T16:29:32.548Z,96627.78
2023-04-08T16:32:00.110Z,96628.56
2023-04-08T16:34:28.149Z,96626.91
2023-04-08T16:36:55.694Z,96635.53
2023-04-08T16:39:24.650Z,96639.16
2023-04-08T16:41:52.098Z,96647.66
2023-04-08T16:44:19.993Z,96648.06
2023-04-08T16:46:47.501Z,96650.44
2023-04-08T16:49:17.564Z,96651.09
2023-04-08T16:51:46.251Z,96660.38
2023-04-08T16:54:13.699Z,96661.91
2023-04-08T16:56:45.461Z,96661.91
2023-04-08T16:59:13.160Z,96661.06
2023-04-08T17:01:40.771Z,96657.97
2023-04-08T17:04:08.445Z,96667.50
2023-04-08T17:06:36.252Z,96664.47
2023-04-08T17:09:04.069Z,96667.81
2023-04-08T17:11:31.929Z,96665.75
2023-04-08T17:14:01.464Z,96671.56
2023-04-08T17:16:29.038Z,96669.81
2023-04-08T17:18:56.609Z,96673.06
2023-04-08T17:21:24.083Z,96683.66
2023-04-08T17:23:52.997Z,96685.28
2023-04-08T17:26:22.103Z,96679.81
2023-04-08T17:28:49.945Z,96690.28
2023-04-08T17:31:18.771Z,96683.88
2023-04-08T17:33:46.241Z,96695.66
2023-04-08T17:36:15.410Z,96700.09
2023-04-08T17:38:42.920Z,96708.47
2023-04-08T17:41:13.402Z,96702.00
2023-04-08T17:43:42.435Z,96710.28
2023-04-08T17:46:10.080Z,96709.44
2023-04-08T17:48:38.946Z,96716.00
2023-04-08T17:51:07.453Z,96711.06
2023-04-08T17:53:35.021Z,96717.00
2023-04-08T17:56:02.712Z,96720.13
2023-04-08T17:58:30.474Z,96717.50
2023-04-08T18:00:58.481Z,96723.34
2023-04-08T18:03:26.162Z,96724.28
2023-04-08T18:05:55.806Z,96725.06
2023-04-08T18:08:23.333Z,96732.63
2023-04-08T18:10:50.825Z,96723.69
2023-04-08T18:13:18.301Z,96732.50
2023-04-08T18:15:46.178Z,96738.41
2023-04-08T18:18:18.389Z,96748.09
2023-04-08T18:20:45.917Z,96746.47
2023-04-08T18:23:14.814Z,96747.97
2023-04-08T18:25:44.482Z,96748.72
2023-04-08T18:28:12.097Z,96745.41
2023-04-08T18:30:39.580Z,96754.94
2023-04-08T18:33:07.610Z,96762.16
2023-04-08T18:35:35.489Z,96766.66
2023-04-08T18:38:02.967Z,96765.53
2023-04-08T18:40:31.832Z,96762.13
2023-04-08T18:43:02.077Z,96765.34
2023-04-08T18:45:30.006Z,96766.47
2023-04-08T18:47:57.572Z,96775.06
2023-04-08T18:50:25.252Z,96773.91
2023-04-08T18:52:52.902Z,96780.63
2023-04-08T18:55:20.455Z,96791.34
2023-04-08T18:57:50.550Z,96785.38
2023-04-08T19:00:18.226Z,96792.72
2023-04-08T19:02:46.177Z,96790.22
2023-04-08T19:05:13.704Z,96796.34
2023-04-08T19:07:41.151Z,96796.69
2023-04-08T19:10:09.633Z,96796.25
2023-04-08T19:12:37.107Z,96809.53
2023-04-08T19:15:06.999Z,96809.38
2023-04-08T19:17:34.494Z,96817.47
2023-04-08T19:20:03.087Z,96818.47
2023-04-08T19:22:30.987Z,96819.69
2023-04-08T19:24:58.807Z,96823.25
2023-04-08T19:27:27.012Z,96825.69
2023-04-08T19:29:54.518Z,96822.78
2023-04-08T19:32:23.328Z,96825.75
2023-04-08T19:34:50.895Z,96821.63
2023-04-08T19:37:18.446Z,96819.13
2023-04-08T19:39:45.885Z,96822.34
2023-04-08T19:42:13.413Z,96814.22
2023-04-08T19:44:40.934Z,96819.84
2023-04-08T19:47:08.413Z,96819.63
2023-04-08T19:49:37.231Z,96814.97
2023-04-08T19:52:04.692Z,96825.53
2023-04-08T19:54:32.281Z,96821.34
2023-04-08T19:57:00.608Z,96824.63
2023-04-08T19:59:28.348Z,96825.16
2023-04-08T20:01:56.358Z,96822.13
2023-04-08T20:04:23.949Z,96826.31
2023-04-08T20:06:52.903Z,96827.69
2023-04-08T20:09:20.428Z,96827.56
2023-04-08T20:11:47.897Z,96826.69
2023-04-08T20:14:16.873Z,96829.44
2023-04-08T20:16:44.682Z,96833.78
2023-04-08T20:19:12.182Z,96833.06
2023-04-08T20:21:39.928Z,96829.84
2023-04-08T20:24:08.782Z,96840.31
2023-04-08T20:26:36.445Z,96837.41
2023-04-08T20:29:03.928Z,96832.53
2023-04-08T20:31:32.003Z,96841.88
2023-04-08T20:34:00.153Z,96852.63
2023-04-08T20:36:29.546Z,96854.88
2023-04-08T20:38:57.310Z,96849.41
2023-04-08T20:41:27.160Z,96854.88
2023-04-08T20:43:55.364Z,96846.50
2023-04-08T20:46:24.466Z,96846.03
2023-04-08T20:48:52.240Z,96847.50
2023-04-08T20:51:19.925Z,96844.63
2023-04-08T20:53:48.278Z,96842.59
2023-04-08T20:56:15.826Z,96840.16
2023-04-08T20:58:44.622Z,96844.91
2023-04-08T21:01:12.165Z,96845.44
2023-04-08T21:03:39.818Z,96836.44
2023-04-08T21:06:07.377Z,96835.59
2023-04-08T21:08:34.806Z,96839.63
2023-04-08T21:11:02.279Z,96846.22
2023-04-08T21:13:29.760Z,96849.28
2023-04-08T21:15:58.640Z,96845.78
2023-04-08T21:18:26.684Z,96851.50
2023-04-08T21:20:54.150Z,96852.13
2023-04-08T21:23:22.558Z,96853.09
2023-04-08T21:25:50.198Z,96849.63
2023-04-08T21:28:17.714Z,96853.75
2023-04-08T21:30:45.284Z,96849.25
2023-04-08T21:33:14.386Z,96855.91
2023-04-08T21:35:41.864Z,96850.00
2023-04-08T21:38:09.335Z,96848.94
2023-04-08T21:40:36.837Z,96855.53
2023-04-08T21:43:04.284Z,96855.88
2023-04-08T21:45:31.791Z,96855.91
2023-04-08T21:47:59.298Z,96857.75
2023-04-08T21:50:28.139Z,96851.97
2023-04-08T21:52:55.807Z,96853.44
2023-04-08T21:55:23.499Z,96852.13
2023-04-08T21:57:51.404Z,96855.25
2023-04-08T22:00:18.895Z,96860.41
2023-04-08T22:02:46.482Z,96866.47
2023-04-08T22:05:14.816Z,96869.09
2023-04-08T22:07:43.668Z,96856.41
2023-04-08T22:10:12.145Z,96850.50
2023-04-08T22:12:39.677Z,96855.19
2023-04-08T22:15:08.416Z,96860.25
2023-04-08T22:17:35.900Z,96855.81
2023-04-08T22:20:03.502Z,96844.69
2023-04-08T22:22:30.989Z,96855.34
2023-04-08T22:24:59.780Z,96862.75
2023-04-08T22:27:29.232Z,96863.59
2023-04-08T22:29:56.721Z,96863.34
2023-04-08T22:32:24.329Z,96866.41
2023-04-08T22:34:51.776Z,96859.78
2023-04-08T22:37:19.269Z,96862.66
2023-04-08T22:39:46.704Z,96862.91
2023-04-08T22:42:15.512Z,96852.84
2023-04-08T22:44:42.970Z,96847.06
2023-04-08T22:47:10.839Z,96856.19
2023-04-08T22:49:40.994Z,96850.69
2023-04-08T22:52:08.425Z,96845.91
2023-04-08T22:54:35.889Z,96847.31
2023-04-08T22:57:03.631Z,96858.59
2023-04-08T22:59:32.432Z,96854.41
2023-04-08T23:01:59.923Z,96861.69
2023-04-08T23:04:27.453Z,96851.03
2023-04-08T23:06:54.920Z,96849.22
2023-04-08T23:09:24.470Z,96854.97
2023-04-08T23:11:51.904Z,96844.88
2023-04-08T23:14:19.387Z,96854.84
2023-04-08T23:16:48.154Z,96859.03
2023-04-08T23:19:15.875Z,96854.72
2023-04-08T23:21:43.321Z,96856.63
2023-04-08T23:24:11.396Z,96858.69
2023-04-08T23:26:38.845Z,96857.97
2023-04-08T23:29:06.304Z,96854.91
2023-04-08T23:31:34.799Z,96855.59
2023-04-08T23:34:03.882Z,96859.16
2023-04-08T23:36:31.334Z,96856.16
2023-04-08T23:38:58.880Z,96851.84
2023-04-08T23:41:26.419Z,96842.44
2023-04-08T23:43:53.931Z,96848.38
2023-04-08T23:46:21.509Z,96851.72
2023-04-08T23:48:49.133Z,96848.47
2023-04-08T23:51:18.111Z,96842.84
2023-04-08T23:53:45.646Z,96847.91
2023-04-08T23:56:13.106Z,96849.97
2023-04-08T23:58:40.565Z,96843.59
